Time;durP1;ratioP1;P1;durP2;ratioP2;P2;SDS_P1;SDS_P2;PMS_P1;PMS_P2;Temp;Humidity;BMP_temperature;BMP_pressure;BME280_temperature;BME280_humidity;BME280_pressure;Samples;Min_cycle;Max_cycle;Signal;HPM_P1;HPM_P2
2023/10/29 00:01:28;;;;;;;4.75;1.50;;;;;;;11.07;100.00;98822.94;10453749;28;20033;-81
2023/10/29 00:06:28;;;;;;;7.53;2.40;;;;;;;11.22;100.00;98818.78;10463259;28;20075;-79
2023/10/29 00:11:29;;;;;;;4.13;1.35;;;;;;;11.36;100.00;98816.34;10476632;28;20561;-80
2023/10/29 00:16:29;;;;;;;3.55;1.13;;;;;;;11.48;100.00;98816.47;10449646;28;20049;-82
2023/10/29 00:21:34;;;;;;;4.20;1.10;;;;;;;11.65;100.00;98803.53;10469542;28;21034;-80
2023/10/29 00:26:34;;;;;;;2.72;0.90;;;;;;;11.84;100.00;98767.91;10464678;28;20068;-80
2023/10/29 00:31:35;;;;;;;12.63;1.45;;;;;;;11.94;100.00;98770.63;10464237;28;20115;-80
2023/10/29 00:36:35;;;;;;;2.15;1.00;;;;;;;12.07;100.00;98741.03;10445985;28;20037;-81
2023/10/29 00:41:36;;;;;;;1.80;0.77;;;;;;;12.15;100.00;98728.88;10447318;28;20524;-81
2023/10/29 00:46:40;;;;;;;1.48;0.60;;;;;;;12.42;100.00;98682.69;10465510;28;20131;-80
2023/10/29 00:51:40;;;;;;;3.15;0.90;;;;;;;12.47;100.00;98644.25;10426567;28;20037;-80
2023/10/29 00:56:41;;;;;;;2.40;0.80;;;;;;;12.44;100.00;98624.97;10460864;28;20123;-81
2023/10/29 01:01:41;;;;;;;2.70;1.20;;;;;;;12.59;100.00;98614.53;10450147;28;20408;-80
2023/10/29 01:06:44;;;;;;;3.65;0.95;;;;;;;12.54;100.00;98636.41;10457587;28;20041;-80
2023/10/29 01:11:44;;;;;;;0.95;0.60;;;;;;;12.75;100.00;98646.06;10432917;28;20163;-79
2023/10/29 01:16:45;;;;;;;2.53;0.70;;;;;;;12.78;100.00;98654.84;10463579;28;20041;-77
2023/10/29 01:21:46;;;;;;;7.72;1.55;;;;;;;12.83;100.00;98636.47;10459309;28;20036;-79
2023/10/29 01:26:47;;;;;;;2.80;0.97;;;;;;;12.75;100.00;98625.97;10447257;28;20128;-80
2023/10/29 01:31:50;;;;;;;4.63;1.40;;;;;;;12.73;100.00;98611.97;10457196;28;20025;-80
2023/10/29 01:36:51;;;;;;;6.43;1.20;;;;;;;12.81;100.00;98588.34;10462193;28;20048;-80
2023/10/29 01:41:56;;;;;;;3.25;1.65;;;;;;;12.68;100.00;98613.69;10460486;28;20124;-80
2023/10/29 01:46:56;;;;;;;3.03;1.40;;;;;;;12.55;100.00;98611.91;10450645;28;20048;-82
2023/10/29 01:51:57;;;;;;;3.17;0.75;;;;;;;12.42;100.00;98613.59;10475034;28;20123;-82
2023/10/29 01:56:57;;;;;;;2.70;1.02;;;;;;;12.34;100.00;98605.72;10447217;28;20097;-81
2023/10/29 02:01:58;;;;;;;2.55;1.33;;;;;;;12.37;100.00;98582.13;10463565;28;20123;-81
2023/10/29 02:06:59;;;;;;;6.40;1.70;;;;;;;12.42;100.00;98572.50;10462537;28;20051;-80
2023/10/29 02:11:59;;;;;;;3.08;0.90;;;;;;;12.53;100.00;98567.28;10457880;28;20132;-81
2023/10/29 02:17:00;;;;;;;1.95;0.98;;;;;;;12.63;100.00;98581.31;10439577;28;20055;-81
2023/10/29 02:22:00;;;;;;;2.72;0.80;;;;;;;12.69;100.00;98590.94;10469950;28;20115;-79
2023/10/29 02:27:01;;;;;;;3.08;0.88;;;;;;;12.65;100.00;98576.06;10468031;28;20156;-82
2023/10/29 02:32:01;;;;;;;6.63;1.13;;;;;;;12.75;100.00;98578.72;10452840;28;20078;-82
2023/10/29 02:37:02;;;;;;;2.03;0.70;;;;;;;12.77;100.00;98578.72;10424542;28;20044;-82
2023/10/29 02:42:03;;;;;;;1.73;0.60;;;;;;;12.65;100.00;98579.56;10461466;28;20052;-83
2023/10/29 02:47:03;;;;;;;3.58;0.80;;;;;;;12.63;100.00;98587.44;10458194;28;20083;-83
2023/10/29 02:52:04;;;;;;;4.40;0.98;;;;;;;12.68;100.00;98592.72;10454994;28;20439;-81
2023/10/29 02:57:05;;;;;;;8.15;1.27;;;;;;;12.60;100.00;98581.31;10464844;28;20033;-80
2023/10/29 03:02:05;;;;;;;8.75;0.82;;;;;;;12.63;100.00;98578.69;10453690;28;20041;-80
2023/10/29 03:07:06;;;;;;;2.83;0.73;;;;;;;12.65;100.00;98591.81;10472528;28;20119;-80
2023/10/29 03:12:06;;;;;;;4.82;0.88;;;;;;;12.58;100.00;98607.53;10485160;28;20040;-78
2023/10/29 03:17:07;;;;;;;5.55;1.33;;;;;;;12.66;100.00;98575.19;10470204;28;20037;-78
2023/10/29 03:22:07;;;;;;;5.53;1.83;;;;;;;12.78;100.00;98590.97;10485394;28;20048;-78
2023/10/29 03:27:08;;;;;;;4.15;0.82;;;;;;;12.79;100.00;98576.97;10466207;28;20124;-78
2023/10/29 03:32:08;;;;;;;4.68;1.95;;;;;;;12.66;100.00;98594.44;10464586;28;20144;-77
2023/10/29 03:37:09;;;;;;;2.05;0.90;;;;;;;12.62;100.00;98606.66;10473418;28;20127;-77
2023/10/29 03:42:10;;;;;;;2.50;0.70;;;;;;;12.59;100.00;98609.28;10482338;28;20136;-78
2023/10/29 03:47:11;;;;;;;2.70;1.30;;;;;;;12.57;100.00;98637.25;10453196;28;20056;-80
2023/10/29 03:52:11;;;;;;;2.47;1.05;;;;;;;12.59;100.00;98622.41;10478571;28;20077;-77
2023/10/29 03:57:12;;;;;;;3.95;0.90;;;;;;;12.59;100.00;98616.28;10472324;28;20104;-79
2023/10/29 04:02:12;;;;;;;3.30;0.95;;;;;;;12.39;100.00;98606.59;10447250;28;20480;-78
2023/10/29 04:07:13;;;;;;;2.25;0.90;;;;;;;12.33;100.00;98617.06;10473905;28;20037;-79
2023/10/29 04:12:14;;;;;;;0.65;0.57;;;;;;;12.48;100.00;98609.25;10478033;28;20056;-80
2023/10/29 04:17:14;;;;;;;5.68;1.13;;;;;;;12.25;100.00;98629.28;10472520;28;20131;-79
2023/10/29 04:22:15;;;;;;;2.22;0.80;;;;;;;12.34;100.00;98621.44;10472152;28;20524;-78
2023/10/29 04:27:16;;;;;;;1.85;0.65;;;;;;;12.37;100.00;98628.44;10455590;28;20040;-81
2023/10/29 04:32:16;;;;;;;1.65;0.68;;;;;;;12.41;100.00;98630.19;10460868;28;20068;-77
2023/10/29 04:37:17;;;;;;;6.07;0.85;;;;;;;12.39;100.00;98624.06;10475713;28;20067;-77
2023/10/29 04:42:18;;;;;;;3.05;1.52;;;;;;;12.49;100.00;98633.72;10446046;28;20043;-78
2023/10/29 04:47:18;;;;;;;4.40;0.65;;;;;;;12.59;100.00;98650.41;10470322;28;20044;-77
2023/10/29 04:52:19;;;;;;;2.65;0.80;;;;;;;12.75;100.00;98644.34;10464269;28;20045;-79
2023/10/29 04:57:21;;;;;;;3.70;0.90;;;;;;;12.76;100.00;98645.19;10458686;28;20047;-80
2023/10/29 05:02:24;;;;;;;3.97;0.85;;;;;;;12.75;100.00;98652.22;10474514;28;20099;-77
2023/10/29 05:07:25;;;;;;;1.67;0.77;;;;;;;12.64;100.00;98664.41;10449806;28;20400;-82
2023/10/29 05:12:25;;;;;;;3.72;1.15;;;;;;;12.42;100.00;98666.94;10442552;28;20098;-80
2023/10/29 05:17:26;;;;;;;3.40;1.55;;;;;;;12.41;100.00;98683.56;10425421;28;20041;-80
2023/10/29 05:22:26;;;;;;;5.88;0.98;;;;;;;12.38;100.00;98685.28;10452737;28;20032;-81
2023/10/29 05:27:27;;;;;;;4.13;0.98;;;;;;;12.39;100.00;98674.81;10468054;28;20132;-81
2023/10/29 05:32:28;;;;;;;5.53;1.95;;;;;;;12.19;100.00;98693.94;10455950;28;20052;-81
2023/10/29 05:37:29;;;;;;;2.13;1.23;;;;;;;12.06;100.00;98689.47;10455090;28;20791;-81
2023/10/29 05:42:32;;;;;;;4.70;0.93;;;;;;;11.95;100.00;98702.47;10451346;28;20289;-81
2023/10/29 05:47:33;;;;;;;4.07;1.33;;;;;;;12.12;100.00;98694.75;10439199;28;20483;-81
2023/10/29 05:52:33;;;;;;;6.10;1.27;;;;;;;12.21;100.00;98714.91;10453424;28;20119;-81
2023/10/29 05:57:34;;;;;;;2.22;1.27;;;;;;;12.23;100.00;98738.53;10451184;28;20540;-81
2023/10/29 06:02:34;;;;;;;5.57;0.85;;;;;;;12.33;100.00;98732.47;10423856;28;20136;-81
2023/10/29 06:07:37;;;;;;;5.15;2.50;;;;;;;12.30;100.00;98753.44;10425125;28;20393;-80
2023/10/29 06:12:37;;;;;;;5.32;1.75;;;;;;;12.31;100.00;98781.44;10448805;28;20036;-81
2023/10/29 06:17:38;;;;;;;5.40;1.20;;;;;;;12.35;100.00;98772.72;10437292;28;20070;-82
2023/10/29 06:22:39;;;;;;;7.10;1.13;;;;;;;12.28;100.00;98791.91;10447905;28;20049;-83
2023/10/29 06:27:39;;;;;;;4.07;1.58;;;;;;;12.13;100.00;98790.91;10477836;28;20064;-83
2023/10/29 06:32:40;;;;;;;6.55;1.05;;;;;;;12.06;100.00;98806.56;10463379;28;20124;-81
2023/10/29 06:37:40;;;;;;;6.53;1.67;;;;;;;11.97;100.00;98817.81;10471412;28;20041;-80
2023/10/29 06:42:42;;;;;;;4.45;1.40;;;;;;;11.75;100.00;98839.44;10445422;28;20500;-84
2023/10/29 06:47:46;;;;;;;2.58;0.90;;;;;;;11.70;100.00;98841.16;10432275;28;20459;-81
2023/10/29 06:52:47;;;;;;;4.97;1.10;;;;;;;11.84;100.00;98830.81;10460917;28;20044;-80
2023/10/29 06:57:47;;;;;;;4.35;1.20;;;;;;;11.77;100.00;98852.59;10472228;28;20128;-83
2023/10/29 07:02:48;;;;;;;5.60;1.20;;;;;;;11.74;100.00;98853.41;10461788;28;20151;-79
2023/10/29 07:07:49;;;;;;;6.03;2.78;;;;;;;11.71;100.00;98853.38;10424259;28;20052;-80
2023/10/29 07:12:50;;;;;;;4.47;1.90;;;;;;;11.73;100.00;98864.75;10407078;28;20064;-80
2023/10/29 07:17:51;;;;;;;10.15;2.40;;;;;;;11.74;100.00;98881.38;10429634;28;20450;-80
2023/10/29 07:22:51;;;;;;;10.23;2.67;;;;;;;12.03;100.00;98880.84;10428364;28;20063;-80
2023/10/29 07:27:52;;;;;;;17.65;2.33;;;;;;;12.18;100.00;98873.13;10425245;28;20111;-79
2023/10/29 07:32:52;;;;;;;9.13;2.38;;;;;;;12.41;100.00;98874.16;10430265;28;20113;-80
2023/10/29 07:37:53;;;;;;;5.57;1.67;;;;;;;12.22;100.00;98902.84;10435153;28;20068;-80
2023/10/29 07:42:53;;;;;;;7.68;1.58;;;;;;;12.04;100.00;98912.31;10424233;28;20044;-81
2023/10/29 07:47:54;;;;;;;14.30;2.42;;;;;;;12.15;100.00;98932.50;10442155;28;20124;-83
2023/10/29 07:52:55;;;;;;;9.93;1.92;;;;;;;12.46;100.00;98933.69;10417027;28;20740;-81
2023/10/29 07:57:55;;;;;;;7.45;1.92;;;;;;;12.66;100.00;98956.63;10408641;28;20874;-80
2023/10/29 08:02:56;;;;;;;5.53;1.40;;;;;;;12.46;100.00;98977.41;10438191;28;20091;-80
2023/10/29 08:07:56;;;;;;;15.07;2.25;;;;;;;12.63;100.00;98970.56;10444792;28;20188;-80
2023/10/29 08:12:57;;;;;;;5.22;1.27;;;;;;;13.21;100.00;98960.53;10448063;28;20052;-80
2023/10/29 08:17:57;;;;;;;5.00;1.77;;;;;;;13.36;100.00;98947.47;10425269;28;20115;-81
2023/10/29 08:22:58;;;;;;;12.30;1.90;;;;;;;13.21;100.00;98963.16;10442619;28;20179;-80
2023/10/29 08:27:58;;;;;;;7.70;2.03;;;;;;;13.27;100.00;98986.81;10461170;28;20500;-81
2023/10/29 08:32:59;;;;;;;6.40;1.75;;;;;;;12.82;100.00;98999.59;10475579;28;20119;-81
2023/10/29 08:37:59;;;;;;;6.00;1.63;;;;;;;12.50;100.00;98991.44;10454589;28;20119;-81
2023/10/29 08:43:04;;;;;;;7.57;1.58;;;;;;;12.18;100.00;98999.00;10463515;28;20033;-81
2023/10/29 08:48:05;;;;;;;12.65;1.50;;;;;;;12.07;100.00;98999.72;10419025;28;20051;-80
2023/10/29 08:53:05;;;;;;;4.25;1.95;;;;;;;11.80;100.00;99027.31;10456320;28;20043;-83
2023/10/29 08:58:06;;;;;;;8.65;1.73;;;;;;;11.67;100.00;99044.63;10424282;28;20124;-83
2023/10/29 09:03:06;;;;;;;15.10;2.65;;;;;;;11.93;100.00;99050.22;10456769;28;20124;-80
2023/10/29 09:08:07;;;;;;;6.18;1.65;;;;;;;12.08;100.00;99044.34;10460195;28;20049;-78
2023/10/29 09:13:07;;;;;;;3.55;1.30;;;;;;;12.19;100.00;99040.09;10447262;28;20111;-79
2023/10/29 09:18:09;;;;;;;4.95;1.23;;;;;;;12.47;100.00;99050.00;10445589;28;20485;-79
2023/10/29 09:23:13;;;;;;;8.52;2.80;;;;;;;12.76;100.00;99059.94;10440034;28;20037;-78
2023/10/29 09:28:14;;;;;;;12.60;3.35;;;;;;;12.84;100.00;99074.00;10461512;28;20102;-80
2023/10/29 09:33:15;;;;;;;5.88;1.58;;;;;;;12.97;100.00;99063.63;10466413;28;20178;-80
2023/10/29 09:38:19;;;;;;;6.63;1.67;;;;;;;12.90;100.00;99067.94;10447045;28;20414;-80
2023/10/29 09:43:20;;;;;;;6.55;2.95;;;;;;;12.73;100.00;99060.78;10448099;28;20043;-80
2023/10/29 09:48:21;;;;;;;6.15;2.50;;;;;;;13.01;100.00;99060.16;10443345;28;20033;-79
2023/10/29 09:53:21;;;;;;;8.80;2.45;;;;;;;14.12;100.00;99041.63;10444520;28;20494;-80
2023/10/29 09:58:23;;;;;;;8.10;1.80;;;;;;;15.80;100.00;99039.13;10457869;28;20507;-81
2023/10/29 10:03:25;;;;;;;10.75;4.20;;;;;;;15.73;100.00;99059.34;10477301;28;20508;-80
2023/10/29 10:08:29;;;;;;;11.52;2.72;;;;;;;14.76;100.00;99057.63;10465557;28;20109;-80
2023/10/29 10:13:41;;;;;;;14.50;3.97;;;;;;;14.78;100.00;99032.16;10470263;28;20408;-82
2023/10/29 10:19:08;;;;;;;9.18;2.53;;;;;;;14.65;100.00;99024.22;10464423;28;20083;-83
2023/10/29 10:24:08;;;;;;;7.05;1.80;;;;;;;14.29;100.00;99035.53;10455998;28;20041;-83
2023/10/29 10:29:09;;;;;;;9.68;2.17;;;;;;;13.85;100.00;99052.88;10438185;28;20048;-80
2023/10/29 10:34:14;;;;;;;5.50;1.33;;;;;;;13.59;100.00;99049.25;10454524;28;20045;-80
2023/10/29 10:39:15;;;;;;;11.68;2.22;;;;;;;13.80;100.00;99051.09;10460701;28;20437;-79
2023/10/29 10:44:19;;;;;;;7.18;1.92;;;;;;;14.16;100.00;99048.66;10459873;28;20048;-81
2023/10/29 10:49:19;;;;;;;6.97;2.35;;;;;;;13.90;100.00;99070.47;10451054;28;20087;-80
2023/10/29 10:54:21;;;;;;;4.80;1.52;;;;;;;13.66;100.00;99073.81;10453549;28;20094;-78
2023/10/29 10:59:22;;;;;;;13.30;1.87;;;;;;;13.60;100.00;99086.91;10451307;28;20033;-79
2023/10/29 11:04:23;;;;;;;47.73;8.97;;;;;;;13.36;100.00;99091.97;10466461;28;20114;-78
2023/10/29 11:09:24;;;;;;;16.13;3.90;;;;;;;13.26;100.00;99100.66;10466848;28;20339;-79
2023/10/29 11:14:25;;;;;;;10.65;2.08;;;;;;;13.05;100.00;99109.22;10429714;28;20036;-79
2023/10/29 11:19:35;;;;;;;4.80;1.60;;;;;;;12.87;100.00;99091.56;10471526;28;20033;-79
2023/10/29 11:24:36;;;;;;;4.68;1.25;;;;;;;12.73;100.00;99089.66;10478508;28;20512;-79
2023/10/29 11:29:43;;;;;;;4.68;1.58;;;;;;;12.79;100.00;99078.34;10452075;28;20085;-80
2023/10/29 11:34:43;;;;;;;5.60;1.10;;;;;;;12.92;100.00;99053.94;10446363;28;20039;-81
2023/10/29 11:39:45;;;;;;;3.97;1.20;;;;;;;13.50;100.00;99023.78;10467267;28;20139;-79
2023/10/29 11:44:46;;;;;;;9.48;1.52;;;;;;;14.29;100.00;99009.25;10461646;28;20068;-80
2023/10/29 11:49:46;;;;;;;5.13;1.75;;;;;;;14.37;100.00;99010.13;10474587;28;20139;-81
2023/10/29 11:54:47;;;;;;;16.40;2.08;;;;;;;13.92;100.00;99026.63;10467191;28;20048;-80
2023/10/29 11:59:54;;;;;;;3.88;1.30;;;;;;;13.86;100.00;98999.44;10463864;28;20033;-80
2023/10/29 12:04:55;;;;;;;7.53;1.40;;;;;;;14.66;100.00;98986.47;10465758;28;20492;-82
2023/10/29 12:10:02;;;;;;;5.45;1.65;;;;;;;14.14;100.00;98995.16;10454847;28;20128;-80
2023/10/29 12:15:04;;;;;;;4.28;1.60;;;;;;;14.12;100.00;98998.66;10448010;28;20041;-79
2023/10/29 12:20:05;;;;;;;;;;;;;;;14.45;100.00;98968.03;10475296;28;20045;-79
2023/10/29 12:25:08;;;;;;;7.18;1.85;;;;;;;15.66;100.00;98975.84;10465746;28;19916;-79
2023/10/29 12:30:09;;;;;;;6.55;1.20;;;;;;;16.72;100.00;98977.06;10450541;28;20055;-79
2023/10/29 12:35:09;;;;;;;6.78;1.17;;;;;;;15.32;100.00;99004.94;10456491;28;20124;-80
2023/10/29 12:40:12;;;;;;;6.15;2.92;;;;;;;15.08;100.00;99012.88;10454195;28;20041;-82
2023/10/29 12:45:30;;;;;;;5.03;1.05;;;;;;;14.83;100.00;99027.78;10454814;28;20037;-79
2023/10/29 12:50:49;;;;;;;6.68;1.20;;;;;;;14.20;100.00;98983.75;10445915;28;20028;-80
2023/10/29 12:55:50;;;;;;;6.72;2.72;;;;;;;14.24;100.00;99009.22;10458264;28;20086;-79
2023/10/29 13:00:51;;;;;;;3.30;1.00;;;;;;;14.18;100.00;99009.19;10463194;28;20511;-79
2023/10/29 13:05:54;;;;;;;6.67;1.57;;;;;;;14.04;100.00;98999.50;10440766;28;20044;-79
2023/10/29 13:10:55;;;;;;;2.70;0.73;;;;;;;14.01;100.00;98972.31;10478851;28;20047;-79
2023/10/29 13:15:57;;;;;;;1.67;0.70;;;;;;;13.96;100.00;98953.88;10460499;28;20448;-80
2023/10/29 13:20:59;;;;;;;3.38;0.60;;;;;;;13.84;100.00;98951.22;10457936;28;20183;-80
2023/10/29 13:26:00;;;;;;;0.93;0.50;;;;;;;13.22;100.00;98931.63;10472108;28;20059;-80
2023/10/29 13:31:00;;;;;;;1.65;0.63;;;;;;;12.78;100.00;98950.56;10456790;28;20044;-81
2023/10/29 13:36:02;;;;;;;4.20;1.55;;;;;;;12.43;100.00;98965.16;10457384;28;20382;-80
2023/10/29 13:41:03;;;;;;;1.50;0.65;;;;;;;12.15;100.00;98967.50;10463919;28;20044;-81
2023/10/29 13:46:05;;;;;;;2.25;0.80;;;;;;;12.06;100.00;98977.00;10476913;28;20124;-79
2023/10/29 13:51:05;;;;;;;3.07;1.40;;;;;;;11.89;100.00;98978.53;10464256;28;20037;-81
2023/10/29 13:56:11;;;;;;;2.53;0.98;;;;;;;11.70;100.00;98987.03;10472803;28;20045;-82
2023/10/29 14:01:21;;;;;;;2.03;0.80;;;;;;;11.56;100.00;98978.97;10464930;28;20044;-79
2023/10/29 14:06:22;;;;;;;13.05;1.75;;;;;;;11.68;100.00;98981.75;10467601;28;20074;-78
2023/10/29 14:11:23;;;;;;;3.60;0.70;;;;;;;11.84;100.00;98948.78;10450847;28;20036;-78
2023/10/29 14:16:53;;;;;;;1.90;0.70;;;;;;;11.78;100.00;98961.78;10462052;28;20064;-78
2023/10/29 14:21:54;;;;;;;1.35;0.60;;;;;;;11.87;100.00;98961.00;10421368;28;20452;-81
2023/10/29 14:26:56;;;;;;;1.05;0.60;;;;;;;11.98;100.00;98953.28;10457505;28;20186;-79
2023/10/29 14:31:56;;;;;;;2.07;0.73;;;;;;;11.89;100.00;98944.47;10477574;28;20040;-80
2023/10/29 14:36:57;;;;;;;3.45;0.88;;;;;;;12.04;100.00;98930.66;10454985;28;20061;-78
2023/10/29 14:41:58;;;;;;;2.08;1.00;;;;;;;12.43;100.00;98938.91;10464639;28;20047;-79
2023/10/29 14:46:59;;;;;;;2.00;0.80;;;;;;;12.42;100.00;98926.66;10434216;28;20064;-80
2023/10/29 14:51:59;;;;;;;1.58;0.65;;;;;;;12.15;100.00;98925.53;10434690;28;20029;-78
2023/10/29 14:57:00;;;;;;;1.17;0.70;;;;;;;11.97;100.00;98934.03;10480539;28;20115;-79
2023/10/29 15:02:01;;;;;;;2.10;0.60;;;;;;;12.28;100.00;98939.63;10473680;28;20496;-79
2023/10/29 15:07:01;;;;;;;1.45;0.63;;;;;;;12.35;100.00;98924.84;10467390;28;20119;-78
2023/10/29 15:12:03;;;;;;;2.03;0.90;;;;;;;12.13;100.00;98915.88;10469292;28;20037;-80
2023/10/29 15:17:04;;;;;;;3.60;0.73;;;;;;;12.12;100.00;98915.03;10470366;28;20069;-82
2023/10/29 15:22:04;;;;;;;2.60;0.60;;;;;;;12.12;100.00;98896.66;10458318;28;20120;-80
2023/10/29 15:27:05;;;;;;;1.25;0.73;;;;;;;11.94;100.00;98899.94;10470335;28;20135;-78
2023/10/29 15:32:05;;;;;;;4.57;1.95;;;;;;;11.85;100.00;98890.25;10458859;28;20515;-78
2023/10/29 15:37:06;;;;;;;4.13;0.82;;;;;;;11.80;100.00;98896.28;10455434;28;20041;-77
2023/10/29 15:42:06;;;;;;;3.67;1.20;;;;;;;11.68;100.00;98897.03;10474630;28;20029;-78
2023/10/29 15:47:07;;;;;;;3.15;0.60;;;;;;;11.63;100.00;98901.34;10457258;28;20033;-78
2023/10/29 15:52:08;;;;;;;2.08;1.10;;;;;;;11.28;100.00;98914.00;10475631;28;20037;-78
2023/10/29 15:57:10;;;;;;;1.02;0.60;;;;;;;11.36;100.00;98916.72;10452406;28;20056;-78
2023/10/29 16:02:10;;;;;;;3.33;0.67;;;;;;;11.50;100.00;98916.91;10470929;28;20036;-78
2023/10/29 16:07:11;;;;;;;2.90;1.35;;;;;;;11.36;100.00;98908.88;10448162;28;20108;-78
2023/10/29 16:12:11;;;;;;;7.00;1.42;;;;;;;11.21;100.00;98932.22;10479886;28;20124;-78
2023/10/29 16:17:13;;;;;;;2.85;1.27;;;;;;;11.24;100.00;98932.25;10445328;28;20120;-77
2023/10/29 16:22:15;;;;;;;1.25;0.60;;;;;;;11.22;100.00;98937.50;10466576;28;20040;-78
2023/10/29 16:27:15;;;;;;;3.97;0.93;;;;;;;11.15;100.00;98943.50;10448468;28;20036;-77
2023/10/29 16:32:16;;;;;;;3.35;1.30;;;;;;;11.12;100.00;98959.16;10453905;28;20481;-77
2023/10/29 16:37:17;;;;;;;10.82;5.30;;;;;;;11.08;100.00;98965.22;10465651;28;20037;-80
2023/10/29 16:42:17;;;;;;;8.70;1.80;;;;;;;11.11;100.00;98981.84;10447133;28;20057;-80
2023/10/29 16:47:18;;;;;;;4.53;1.52;;;;;;;11.41;100.00;98969.19;10467476;28;20128;-80
2023/10/29 16:52:18;;;;;;;4.47;1.02;;;;;;;11.58;100.00;98958.91;10468902;28;20056;-79
2023/10/29 16:57:19;;;;;;;6.22;3.10;;;;;;;11.51;100.00;98954.44;10465827;28;20499;-79
2023/10/29 17:02:19;;;;;;;7.03;2.15;;;;;;;11.39;100.00;98957.81;10453201;28;20127;-80
2023/10/29 17:07:21;;;;;;;3.78;1.02;;;;;;;11.22;100.00;98978.50;10473039;28;20128;-79
2023/10/29 17:12:21;;;;;;;13.93;1.80;;;;;;;11.35;100.00;98983.06;10463844;28;20037;-79
2023/10/29 17:17:26;;;;;;;7.25;4.13;;;;;;;11.25;100.00;98994.25;10456722;28;20068;-78
2023/10/29 17:22:27;;;;;;;2.50;1.00;;;;;;;11.31;100.00;99000.47;10466112;28;20028;-78
2023/10/29 17:27:27;;;;;;;2.03;1.10;;;;;;;11.30;100.00;99010.91;10457818;28;20115;-77
2023/10/29 17:32:28;;;;;;;1.85;0.93;;;;;;;11.48;100.00;98989.38;10462759;28;20539;-78
2023/10/29 17:37:29;;;;;;;5.18;2.70;;;;;;;11.48;100.00;99004.19;10459311;28;20116;-80
2023/10/29 17:42:30;;;;;;;3.75;1.23;;;;;;;11.42;100.00;99023.31;10451959;28;20128;-78
2023/10/29 17:47:31;;;;;;;1.63;0.50;;;;;;;11.48;100.00;99033.00;10466403;28;20049;-80
2023/10/29 17:52:33;;;;;;;6.40;1.13;;;;;;;11.39;100.00;99034.63;10458988;28;20636;-78
2023/10/29 17:57:33;;;;;;;9.82;1.52;;;;;;;11.22;100.00;99057.94;10460835;28;20040;-79
2023/10/29 18:02:35;;;;;;;4.07;1.70;;;;;;;11.10;100.00;99068.22;10478047;28;20029;-82
2023/10/29 18:07:35;;;;;;;3.58;1.25;;;;;;;11.35;100.00;99074.72;10438447;28;20024;-82
2023/10/29 18:12:36;;;;;;;4.55;1.08;;;;;;;11.31;100.00;99094.75;10445788;28;20422;-83
2023/10/29 18:17:36;;;;;;;6.93;4.10;;;;;;;11.27;100.00;99106.03;10465221;28;20127;-83
2023/10/29 18:22:37;;;;;;;8.23;3.90;;;;;;;11.25;100.00;99107.75;10458213;28;20119;-82
2023/10/29 18:27:38;;;;;;;4.18;0.90;;;;;;;11.22;100.00;99122.50;10457520;28;20388;-82
2023/10/29 18:32:40;;;;;;;4.03;0.93;;;;;;;11.18;100.00;99131.19;10465977;28;20041;-80
2023/10/29 18:37:45;;;;;;;10.00;1.58;;;;;;;11.07;100.00;99144.09;10461610;28;20041;-80
2023/10/29 18:42:45;;;;;;;3.95;1.10;;;;;;;11.04;100.00;99142.28;10452894;28;20040;-78
2023/10/29 18:47:46;;;;;;;8.07;2.58;;;;;;;11.15;100.00;99152.97;10453093;28;20115;-80
2023/10/29 18:52:46;;;;;;;15.52;2.20;;;;;;;11.08;100.00;99177.28;10466779;28;20057;-80
2023/10/29 18:57:48;;;;;;;8.00;1.50;;;;;;;10.87;100.00;99191.72;10465206;28;20128;-81
2023/10/29 19:02:48;;;;;;;6.17;1.23;;;;;;;10.90;100.00;99183.94;10474118;28;20040;-80
2023/10/29 19:07:49;;;;;;;3.72;1.30;;;;;;;10.92;100.00;99202.25;10464889;28;20037;-80
2023/10/29 19:12:49;;;;;;;8.13;3.30;;;;;;;10.81;100.00;99223.00;10473591;28;20090;-79
2023/10/29 19:17:50;;;;;;;6.38;1.55;;;;;;;11.05;100.00;99224.34;10448396;28;20596;-79
2023/10/29 19:22:50;;;;;;;6.85;1.55;;;;;;;10.90;100.00;99243.22;10470932;28;20045;-80
2023/10/29 19:27:52;;;;;;;9.80;1.92;;;;;;;10.75;100.00;99255.16;10441225;28;20124;-78
2023/10/29 19:32:52;;;;;;;12.50;8.40;;;;;;;10.66;100.00;99276.78;10480513;28;20098;-79
2023/10/29 19:37:53;;;;;;;7.90;1.58;;;;;;;10.75;100.00;99280.44;10456672;28;20531;-79
2023/10/29 19:42:55;;;;;;;3.38;1.40;;;;;;;10.81;100.00;99297.16;10451597;28;20102;-79
2023/10/29 19:47:56;;;;;;;3.53;1.58;;;;;;;10.86;100.00;99303.34;10473840;28;20051;-79
2023/10/29 19:52:56;;;;;;;2.95;1.10;;;;;;;10.79;100.00;99311.94;10472800;28;20052;-79
2023/10/29 19:57:57;;;;;;;5.28;1.20;;;;;;;10.71;100.00;99305.66;10468942;28;20147;-79
2023/10/29 20:02:57;;;;;;;7.10;1.48;;;;;;;10.65;100.00;99313.34;10442772;28;20043;-79
2023/10/29 20:07:58;;;;;;;4.63;1.40;;;;;;;10.51;100.00;99319.16;10458231;28;20094;-78
2023/10/29 20:12:59;;;;;;;6.47;2.15;;;;;;;10.51;100.00;99339.22;10441909;28;20045;-78
2023/10/29 20:18:00;;;;;;;8.13;5.20;;;;;;;10.38;100.00;99354.59;10474785;28;20127;-79
2023/10/29 20:23:00;;;;;;;5.90;2.35;;;;;;;10.49;100.00;99360.09;10447933;28;20129;-77
2023/10/29 20:28:02;;;;;;;9.07;2.95;;;;;;;10.50;100.00;99363.59;10438949;28;20041;-80
2023/10/29 20:33:05;;;;;;;4.22;2.20;;;;;;;10.44;100.00;99372.19;10476667;28;20048;-81
2023/10/29 20:38:06;;;;;;;6.72;2.33;;;;;;;10.34;100.00;99378.00;10465249;28;20039;-80
2023/10/29 20:43:06;;;;;;;10.13;2.22;;;;;;;10.27;100.00;99379.59;10467150;28;20052;-79
2023/10/29 20:48:07;;;;;;;7.85;1.75;;;;;;;10.22;100.00;99386.44;10479742;28;20044;-80
2023/10/29 20:53:08;;;;;;;6.35;1.35;;;;;;;10.19;100.00;99384.63;10459725;28;20048;-79
2023/10/29 20:58:09;;;;;;;7.35;2.03;;;;;;;10.16;100.00;99391.50;10471339;28;20064;-80
2023/10/29 21:03:12;;;;;;;10.40;1.90;;;;;;;10.32;100.00;99390.16;10456894;28;20037;-79
2023/10/29 21:08:12;;;;;;;7.18;1.73;;;;;;;10.14;100.00;99392.34;10460868;28;20138;-78
2023/10/29 21:13:14;;;;;;;9.17;2.90;;;;;;;10.12;100.00;99398.38;10441933;28;20047;-78
2023/10/29 21:18:14;;;;;;;7.03;2.15;;;;;;;10.12;100.00;99414.97;10447424;28;20041;-78
2023/10/29 21:23:16;;;;;;;9.63;3.30;;;;;;;10.11;100.00;99423.66;10465588;28;20067;-79
2023/10/29 21:28:17;;;;;;;;;;;;;;;10.16;100.00;99413.28;10424924;28;20067;-79
2023/10/29 21:33:21;;;;;;;8.70;2.25;;;;;;;10.21;100.00;99411.69;10455410;28;19927;-80
2023/10/29 21:38:21;;;;;;;9.65;2.13;;;;;;;10.24;100.00;99413.50;10451325;28;20032;-79
2023/10/29 21:43:22;;;;;;;10.55;3.33;;;;;;;10.19;100.00;99412.50;10446276;28;20055;-78
2023/10/29 21:48:22;;;;;;;11.07;2.47;;;;;;;10.18;100.00;99421.19;10460941;28;20042;-80
2023/10/29 21:53:23;;;;;;;8.48;3.05;;;;;;;10.14;100.00;99431.56;10462160;28;20080;-78
2023/10/29 21:58:24;;;;;;;11.63;2.67;;;;;;;10.04;100.00;99445.25;10462577;28;20048;-79
2023/10/29 22:03:25;;;;;;;12.68;2.60;;;;;;;10.00;100.00;99443.38;10447983;28;20064;-77
2023/10/29 22:08:26;;;;;;;6.65;2.50;;;;;;;9.96;100.00;99452.00;10449460;28;20028;-79
2023/10/29 22:13:27;;;;;;;15.13;4.43;;;;;;;9.97;100.00;99458.97;10454579;28;20519;-80
2023/10/29 22:18:28;;;;;;;10.43;2.58;;;;;;;9.91;100.00;99471.88;10454993;28;20127;-82
2023/10/29 22:23:28;;;;;;;15.75;3.65;;;;;;;9.90;100.00;99464.88;10451763;28;20032;-80
2023/10/29 22:28:29;;;;;;;11.75;2.45;;;;;;;9.88;100.00;99472.66;10433844;28;20102;-80
2023/10/29 22:33:30;;;;;;;10.88;4.68;;;;;;;9.87;100.00;99480.47;10456851;28;20036;-81
2023/10/29 22:38:31;;;;;;;9.73;2.20;;;;;;;9.91;100.00;99477.09;10462743;28;20123;-81
2023/10/29 22:43:31;;;;;;;8.35;3.83;;;;;;;9.93;100.00;99478.03;10452715;28;20033;-81
2023/10/29 22:48:32;;;;;;;14.10;3.58;;;;;;;10.08;100.00;99486.31;10458390;28;20063;-81
2023/10/29 22:53:33;;;;;;;8.13;1.85;;;;;;;10.07;100.00;99478.41;10440294;28;20040;-81
2023/10/29 22:58:33;;;;;;;7.55;2.15;;;;;;;9.98;100.00;99485.16;10459123;28;20496;-79
2023/10/29 23:03:34;;;;;;;8.32;2.08;;;;;;;9.95;100.00;99482.44;10466894;28;20037;-80